sensor_id;sensor_type;location;lat;lon;timestamp;P1;durP1;ratioP1;P2;durP2;ratioP2
46491;SDS011;32206;51.446;6.792;2023-08-08T00:02:06;1.25;;;1.17;;
46491;SDS011;32206;51.446;6.792;2023-08-08T00:04:32;1.58;;;1.23;;
46491;SDS011;32206;51.446;6.792;2023-08-08T00:06:57;2.75;;;1.65;;
46491;SDS011;32206;51.446;6.792;2023-08-08T00:09:23;2.38;;;1.30;;
46491;SDS011;32206;51.446;6.792;2023-08-08T00:11:48;2.47;;;1.33;;
46491;SDS011;32206;51.446;6.792;2023-08-08T00:17:36;2.03;;;1.60;;
46491;SDS011;32206;51.446;6.792;2023-08-08T00:23:24;2.10;;;1.40;;
46491;SDS011;32206;51.446;6.792;2023-08-08T00:25:50;1.80;;;1.13;;
46491;SDS011;32206;51.446;6.792;2023-08-08T00:28:16;3.55;;;1.27;;
46491;SDS011;32206;51.446;6.792;2023-08-08T00:30:42;5.05;;;1.23;;
46491;SDS011;32206;51.446;6.792;2023-08-08T00:33:08;1.42;;;1.30;;
46491;SDS011;32206;51.446;6.792;2023-08-08T00:35:34;1.35;;;1.15;;
46491;SDS011;32206;51.446;6.792;2023-08-08T00:37:59;2.05;;;1.15;;
46491;SDS011;32206;51.446;6.792;2023-08-08T00:40:25;5.30;;;1.52;;
46491;SDS011;32206;51.446;6.792;2023-08-08T00:42:51;2.05;;;1.38;;
46491;SDS011;32206;51.446;6.792;2023-08-08T00:45:16;3.75;;;1.48;;
46491;SDS011;32206;51.446;6.792;2023-08-08T00:47:42;1.63;;;1.10;;
46491;SDS011;32206;51.446;6.792;2023-08-08T00:50:08;3.78;;;1.25;;
46491;SDS011;32206;51.446;6.792;2023-08-08T00:52:35;4.95;;;1.48;;
46491;SDS011;32206;51.446;6.792;2023-08-08T00:55:02;2.20;;;1.45;;
46491;SDS011;32206;51.446;6.792;2023-08-08T00:57:28;1.52;;;1.30;;
46491;SDS011;32206;51.446;6.792;2023-08-08T00:59:54;3.63;;;1.85;;
46491;SDS011;32206;51.446;6.792;2023-08-08T01:02:20;2.13;;;1.23;;
46491;SDS011;32206;51.446;6.792;2023-08-08T01:04:45;2.85;;;1.13;;
46491;SDS011;32206;51.446;6.792;2023-08-08T01:13:34;1.90;;;0.90;;
46491;SDS011;32206;51.446;6.792;2023-08-08T01:16:02;4.22;;;1.15;;
46491;SDS011;32206;51.446;6.792;2023-08-08T01:18:28;1.80;;;1.20;;
46491;SDS011;32206;51.446;6.792;2023-08-08T01:20:55;3.45;;;1.65;;
46491;SDS011;32206;51.446;6.792;2023-08-08T01:23:33;2.40;;;1.27;;
46491;SDS011;32206;51.446;6.792;2023-08-08T01:26:07;2.85;;;1.33;;
46491;SDS011;32206;51.446;6.792;2023-08-08T01:28:33;2.05;;;1.20;;
46491;SDS011;32206;51.446;6.792;2023-08-08T01:30:59;3.28;;;1.15;;
46491;SDS011;32206;51.446;6.792;2023-08-08T01:33:25;2.58;;;1.58;;
46491;SDS011;32206;51.446;6.792;2023-08-08T01:35:54;1.35;;;1.20;;
46491;SDS011;32206;51.446;6.792;2023-08-08T01:38:28;8.32;;;2.10;;
46491;SDS011;32206;51.446;6.792;2023-08-08T01:40:59;3.85;;;1.38;;
46491;SDS011;32206;51.446;6.792;2023-08-08T01:46:44;3.45;;;1.20;;
46491;SDS011;32206;51.446;6.792;2023-08-08T01:49:10;5.60;;;1.98;;
46491;SDS011;32206;51.446;6.792;2023-08-08T01:51:36;7.88;;;2.30;;
46491;SDS011;32206;51.446;6.792;2023-08-08T01:54:02;2.70;;;1.50;;
46491;SDS011;32206;51.446;6.792;2023-08-08T01:56:28;4.30;;;1.90;;
46491;SDS011;32206;51.446;6.792;2023-08-08T01:58:53;4.22;;;1.52;;
46491;SDS011;32206;51.446;6.792;2023-08-08T02:01:19;3.83;;;1.60;;
46491;SDS011;32206;51.446;6.792;2023-08-08T02:03:45;2.35;;;1.98;;
46491;SDS011;32206;51.446;6.792;2023-08-08T02:06:10;12.07;;;2.05;;
46491;SDS011;32206;51.446;6.792;2023-08-08T02:08:36;5.40;;;1.60;;
46491;SDS011;32206;51.446;6.792;2023-08-08T02:11:02;2.28;;;1.52;;
46491;SDS011;32206;51.446;6.792;2023-08-08T02:13:27;3.03;;;1.67;;
46491;SDS011;32206;51.446;6.792;2023-08-08T02:15:53;2.45;;;1.60;;
46491;SDS011;32206;51.446;6.792;2023-08-08T02:18:19;2.40;;;1.75;;
46491;SDS011;32206;51.446;6.792;2023-08-08T02:20:44;3.83;;;1.73;;
46491;SDS011;32206;51.446;6.792;2023-08-08T02:23:10;1.75;;;1.50;;
46491;SDS011;32206;51.446;6.792;2023-08-08T02:25:36;1.70;;;1.58;;
46491;SDS011;32206;51.446;6.792;2023-08-08T02:28:01;3.30;;;1.38;;
46491;SDS011;32206;51.446;6.792;2023-08-08T02:30:27;6.32;;;1.98;;
46491;SDS011;32206;51.446;6.792;2023-08-08T02:32:53;2.03;;;1.20;;
46491;SDS011;32206;51.446;6.792;2023-08-08T02:35:18;5.25;;;1.65;;
46491;SDS011;32206;51.446;6.792;2023-08-08T02:37:44;2.10;;;1.80;;
46491;SDS011;32206;51.446;6.792;2023-08-08T02:40:10;4.03;;;2.03;;
46491;SDS011;32206;51.446;6.792;2023-08-08T02:42:36;5.03;;;1.70;;
46491;SDS011;32206;51.446;6.792;2023-08-08T02:45:02;4.22;;;2.05;;
46491;SDS011;32206;51.446;6.792;2023-08-08T02:47:27;4.22;;;1.50;;
46491;SDS011;32206;51.446;6.792;2023-08-08T02:49:53;4.00;;;2.10;;
46491;SDS011;32206;51.446;6.792;2023-08-08T02:52:19;2.08;;;1.38;;
46491;SDS011;32206;51.446;6.792;2023-08-08T02:54:44;5.85;;;1.55;;
46491;SDS011;32206;51.446;6.792;2023-08-08T02:57:10;5.72;;;1.75;;
46491;SDS011;32206;51.446;6.792;2023-08-08T02:59:36;5.25;;;1.65;;
46491;SDS011;32206;51.446;6.792;2023-08-08T03:02:03;5.00;;;1.52;;
46491;SDS011;32206;51.446;6.792;2023-08-08T03:04:29;3.78;;;2.08;;
46491;SDS011;32206;51.446;6.792;2023-08-08T03:06:55;2.90;;;1.95;;
46491;SDS011;32206;51.446;6.792;2023-08-08T03:09:20;5.38;;;2.80;;
46491;SDS011;32206;51.446;6.792;2023-08-08T03:11:46;6.20;;;1.88;;
46491;SDS011;32206;51.446;6.792;2023-08-08T03:14:12;4.03;;;1.80;;
46491;SDS011;32206;51.446;6.792;2023-08-08T03:16:38;4.25;;;1.85;;
46491;SDS011;32206;51.446;6.792;2023-08-08T03:19:04;3.85;;;1.95;;
46491;SDS011;32206;51.446;6.792;2023-08-08T03:21:29;4.50;;;2.15;;
46491;SDS011;32206;51.446;6.792;2023-08-08T03:23:55;6.47;;;2.42;;
46491;SDS011;32206;51.446;6.792;2023-08-08T03:26:22;4.82;;;1.67;;
46491;SDS011;32206;51.446;6.792;2023-08-08T03:28:48;2.67;;;1.77;;
46491;SDS011;32206;51.446;6.792;2023-08-08T03:31:16;5.88;;;2.72;;
46491;SDS011;32206;51.446;6.792;2023-08-08T03:33:42;4.25;;;2.45;;
46491;SDS011;32206;51.446;6.792;2023-08-08T03:36:08;6.50;;;2.97;;
46491;SDS011;32206;51.446;6.792;2023-08-08T03:38:34;4.50;;;2.00;;
46491;SDS011;32206;51.446;6.792;2023-08-08T03:41:02;4.78;;;2.50;;
46491;SDS011;32206;51.446;6.792;2023-08-08T03:43:28;3.55;;;1.88;;
46491;SDS011;32206;51.446;6.792;2023-08-08T03:49:16;16.23;;;8.95;;
46491;SDS011;32206;51.446;6.792;2023-08-08T03:51:42;4.18;;;2.60;;
46491;SDS011;32206;51.446;6.792;2023-08-08T03:54:07;9.90;;;2.55;;
46491;SDS011;32206;51.446;6.792;2023-08-08T03:56:33;6.05;;;2.40;;
46491;SDS011;32206;51.446;6.792;2023-08-08T03:58:59;5.93;;;2.67;;
46491;SDS011;32206;51.446;6.792;2023-08-08T04:01:25;3.92;;;2.28;;
46491;SDS011;32206;51.446;6.792;2023-08-08T04:07:06;6.20;;;3.53;;
46491;SDS011;32206;51.446;6.792;2023-08-08T04:09:32;5.55;;;2.38;;
46491;SDS011;32206;51.446;6.792;2023-08-08T04:11:58;5.30;;;2.40;;
46491;SDS011;32206;51.446;6.792;2023-08-08T04:14:23;10.00;;;2.60;;
46491;SDS011;32206;51.446;6.792;2023-08-08T04:16:49;7.30;;;2.90;;
46491;SDS011;32206;51.446;6.792;2023-08-08T04:19:14;7.82;;;3.40;;
46491;SDS011;32206;51.446;6.792;2023-08-08T04:21:40;10.55;;;2.40;;
46491;SDS011;32206;51.446;6.792;2023-08-08T04:27:29;16.98;;;4.15;;
46491;SDS011;32206;51.446;6.792;2023-08-08T04:29:54;3.45;;;2.90;;
46491;SDS011;32206;51.446;6.792;2023-08-08T04:32:20;11.98;;;3.38;;
46491;SDS011;32206;51.446;6.792;2023-08-08T04:38:17;7.97;;;2.85;;
46491;SDS011;32206;51.446;6.792;2023-08-08T04:40:43;4.57;;;2.95;;
46491;SDS011;32206;51.446;6.792;2023-08-08T04:43:08;7.60;;;3.22;;
46491;SDS011;32206;51.446;6.792;2023-08-08T04:45:34;7.90;;;3.33;;
46491;SDS011;32206;51.446;6.792;2023-08-08T04:48:00;10.13;;;3.58;;
46491;SDS011;32206;51.446;6.792;2023-08-08T04:50:25;10.45;;;3.70;;
46491;SDS011;32206;51.446;6.792;2023-08-08T04:56:04;4.93;;;3.45;;
46491;SDS011;32206;51.446;6.792;2023-08-08T04:58:29;7.35;;;3.70;;
46491;SDS011;32206;51.446;6.792;2023-08-08T05:00:55;8.70;;;3.88;;
46491;SDS011;32206;51.446;6.792;2023-08-08T05:03:21;7.70;;;3.45;;
46491;SDS011;32206;51.446;6.792;2023-08-08T05:05:46;10.02;;;3.97;;
46491;SDS011;32206;51.446;6.792;2023-08-08T05:08:15;11.48;;;4.00;;
46491;SDS011;32206;51.446;6.792;2023-08-08T05:10:41;15.32;;;5.05;;
46491;SDS011;32206;51.446;6.792;2023-08-08T05:19:40;9.88;;;4.43;;
46491;SDS011;32206;51.446;6.792;2023-08-08T05:22:06;9.60;;;3.95;;
46491;SDS011;32206;51.446;6.792;2023-08-08T05:24:32;13.00;;;4.72;;
46491;SDS011;32206;51.446;6.792;2023-08-08T05:26:57;11.75;;;4.20;;
46491;SDS011;32206;51.446;6.792;2023-08-08T05:29:23;14.00;;;4.68;;
46491;SDS011;32206;51.446;6.792;2023-08-08T05:31:49;9.00;;;4.28;;
46491;SDS011;32206;51.446;6.792;2023-08-08T05:34:14;15.73;;;5.32;;
46491;SDS011;32206;51.446;6.792;2023-08-08T05:36:40;15.80;;;5.10;;
46491;SDS011;32206;51.446;6.792;2023-08-08T05:39:07;10.68;;;4.72;;
46491;SDS011;32206;51.446;6.792;2023-08-08T05:41:34;10.07;;;4.65;;
46491;SDS011;32206;51.446;6.792;2023-08-08T05:44:00;9.90;;;5.35;;
46491;SDS011;32206;51.446;6.792;2023-08-08T05:46:26;8.57;;;4.88;;
46491;SDS011;32206;51.446;6.792;2023-08-08T05:48:51;13.20;;;5.78;;
46491;SDS011;32206;51.446;6.792;2023-08-08T05:51:17;9.07;;;5.43;;
46491;SDS011;32206;51.446;6.792;2023-08-08T05:53:43;11.45;;;5.72;;
46491;SDS011;32206;51.446;6.792;2023-08-08T05:56:08;15.18;;;6.15;;
46491;SDS011;32206;51.446;6.792;2023-08-08T05:58:34;13.70;;;4.97;;
46491;SDS011;32206;51.446;6.792;2023-08-08T06:01:02;9.48;;;5.03;;
46491;SDS011;32206;51.446;6.792;2023-08-08T06:10:15;12.82;;;6.05;;
46491;SDS011;32206;51.446;6.792;2023-08-08T06:12:41;9.23;;;5.35;;
46491;SDS011;32206;51.446;6.792;2023-08-08T06:15:06;15.30;;;6.82;;
46491;SDS011;32206;51.446;6.792;2023-08-08T06:17:33;16.10;;;6.22;;
46491;SDS011;32206;51.446;6.792;2023-08-08T06:19:59;9.70;;;6.10;;
46491;SDS011;32206;51.446;6.792;2023-08-08T06:22:25;7.32;;;5.88;;
46491;SDS011;32206;51.446;6.792;2023-08-08T06:24:50;14.45;;;6.93;;
46491;SDS011;32206;51.446;6.792;2023-08-08T06:27:17;11.85;;;6.63;;
46491;SDS011;32206;51.446;6.792;2023-08-08T06:29:43;15.73;;;6.70;;
46491;SDS011;32206;51.446;6.792;2023-08-08T06:32:08;15.05;;;6.80;;
46491;SDS011;32206;51.446;6.792;2023-08-08T06:34:34;16.67;;;6.90;;
46491;SDS011;32206;51.446;6.792;2023-08-08T06:37:00;14.25;;;6.97;;
46491;SDS011;32206;51.446;6.792;2023-08-08T06:39:25;12.68;;;7.97;;
46491;SDS011;32206;51.446;6.792;2023-08-08T06:41:51;11.73;;;7.45;;
46491;SDS011;32206;51.446;6.792;2023-08-08T06:44:16;19.13;;;7.50;;
46491;SDS011;32206;51.446;6.792;2023-08-08T06:46:42;11.23;;;7.53;;
46491;SDS011;32206;51.446;6.792;2023-08-08T06:49:08;15.98;;;8.65;;
46491;SDS011;32206;51.446;6.792;2023-08-08T06:51:34;18.42;;;7.70;;
46491;SDS011;32206;51.446;6.792;2023-08-08T06:54:00;14.30;;;7.40;;
46491;SDS011;32206;51.446;6.792;2023-08-08T06:56:26;15.13;;;7.63;;
46491;SDS011;32206;51.446;6.792;2023-08-08T06:58:52;13.40;;;7.43;;
46491;SDS011;32206;51.446;6.792;2023-08-08T07:01:18;12.90;;;6.90;;
46491;SDS011;32206;51.446;6.792;2023-08-08T07:03:44;18.42;;;7.53;;
46491;SDS011;32206;51.446;6.792;2023-08-08T07:06:10;11.55;;;6.72;;
46491;SDS011;32206;51.446;6.792;2023-08-08T07:08:35;11.35;;;6.82;;
46491;SDS011;32206;51.446;6.792;2023-08-08T07:11:04;10.23;;;5.68;;
46491;SDS011;32206;51.446;6.792;2023-08-08T07:13:31;10.80;;;6.03;;
46491;SDS011;32206;51.446;6.792;2023-08-08T07:15:57;11.05;;;6.32;;
46491;SDS011;32206;51.446;6.792;2023-08-08T07:18:22;11.95;;;5.60;;
46491;SDS011;32206;51.446;6.792;2023-08-08T07:20:48;8.30;;;5.35;;
46491;SDS011;32206;51.446;6.792;2023-08-08T07:23:14;17.85;;;5.30;;
46491;SDS011;32206;51.446;6.792;2023-08-08T07:25:41;9.40;;;5.78;;
46491;SDS011;32206;51.446;6.792;2023-08-08T07:28:07;7.97;;;5.22;;
46491;SDS011;32206;51.446;6.792;2023-08-08T07:30:33;8.90;;;4.75;;
46491;SDS011;32206;51.446;6.792;2023-08-08T07:39:28;9.35;;;3.67;;
46491;SDS011;32206;51.446;6.792;2023-08-08T07:41:54;10.85;;;5.18;;
46491;SDS011;32206;51.446;6.792;2023-08-08T07:44:20;8.68;;;4.30;;
46491;SDS011;32206;51.446;6.792;2023-08-08T07:46:47;9.48;;;3.60;;
46491;SDS011;32206;51.446;6.792;2023-08-08T07:49:13;9.45;;;3.97;;
46491;SDS011;32206;51.446;6.792;2023-08-08T07:51:38;5.38;;;3.45;;
46491;SDS011;32206;51.446;6.792;2023-08-08T07:54:04;10.77;;;3.70;;
46491;SDS011;32206;51.446;6.792;2023-08-08T07:56:35;8.00;;;3.28;;
46491;SDS011;32206;51.446;6.792;2023-08-08T07:59:02;9.50;;;3.40;;
46491;SDS011;32206;51.446;6.792;2023-08-08T08:01:28;5.03;;;2.85;;
46491;SDS011;32206;51.446;6.792;2023-08-08T08:03:54;9.48;;;3.90;;
46491;SDS011;32206;51.446;6.792;2023-08-08T08:06:20;4.82;;;2.58;;
46491;SDS011;32206;51.446;6.792;2023-08-08T08:08:46;7.13;;;2.42;;
46491;SDS011;32206;51.446;6.792;2023-08-08T08:11:11;11.27;;;2.65;;
46491;SDS011;32206;51.446;6.792;2023-08-08T08:13:38;8.00;;;2.28;;
46491;SDS011;32206;51.446;6.792;2023-08-08T08:16:04;7.75;;;1.88;;
46491;SDS011;32206;51.446;6.792;2023-08-08T08:28:36;8.85;;;2.20;;
46491;SDS011;32206;51.446;6.792;2023-08-08T08:31:05;5.35;;;2.10;;
46491;SDS011;32206;51.446;6.792;2023-08-08T08:33:32;9.20;;;2.38;;
46491;SDS011;32206;51.446;6.792;2023-08-08T08:35:58;3.97;;;1.60;;
46491;SDS011;32206;51.446;6.792;2023-08-08T08:38:23;10.95;;;2.10;;
46491;SDS011;32206;51.446;6.792;2023-08-08T08:40:49;4.15;;;2.00;;
46491;SDS011;32206;51.446;6.792;2023-08-08T08:43:18;7.88;;;2.58;;
46491;SDS011;32206;51.446;6.792;2023-08-08T08:45:44;3.45;;;1.75;;
46491;SDS011;32206;51.446;6.792;2023-08-08T08:48:15;7.65;;;1.73;;
46491;SDS011;32206;51.446;6.792;2023-08-08T08:50:42;3.88;;;1.52;;
46491;SDS011;32206;51.446;6.792;2023-08-08T08:53:10;6.07;;;1.65;;
46491;SDS011;32206;51.446;6.792;2023-08-08T08:55:37;3.75;;;1.55;;
46491;SDS011;32206;51.446;6.792;2023-08-08T08:58:04;3.40;;;1.90;;
46491;SDS011;32206;51.446;6.792;2023-08-08T09:00:31;4.85;;;1.63;;
46491;SDS011;32206;51.446;6.792;2023-08-08T09:02:57;9.05;;;2.05;;
46491;SDS011;32206;51.446;6.792;2023-08-08T09:05:23;7.38;;;2.25;;
46491;SDS011;32206;51.446;6.792;2023-08-08T09:07:51;3.95;;;1.45;;
46491;SDS011;32206;51.446;6.792;2023-08-08T09:10:17;7.22;;;2.00;;
46491;SDS011;32206;51.446;6.792;2023-08-08T09:12:44;4.05;;;1.20;;
46491;SDS011;32206;51.446;6.792;2023-08-08T09:15:10;5.53;;;1.38;;
46491;SDS011;32206;51.446;6.792;2023-08-08T09:17:40;7.82;;;1.63;;
46491;SDS011;32206;51.446;6.792;2023-08-08T09:20:11;4.60;;;1.00;;
46491;SDS011;32206;51.446;6.792;2023-08-08T09:25:59;4.28;;;1.33;;
46491;SDS011;32206;51.446;6.792;2023-08-08T09:28:25;3.85;;;1.55;;
46491;SDS011;32206;51.446;6.792;2023-08-08T09:30:51;4.65;;;1.85;;
46491;SDS011;32206;51.446;6.792;2023-08-08T09:33:18;7.97;;;2.05;;
46491;SDS011;32206;51.446;6.792;2023-08-08T09:35:44;5.88;;;1.80;;
46491;SDS011;32206;51.446;6.792;2023-08-08T09:38:10;6.78;;;2.10;;
46491;SDS011;32206;51.446;6.792;2023-08-08T09:40:35;4.45;;;1.55;;
46491;SDS011;32206;51.446;6.792;2023-08-08T09:49:46;4.60;;;1.45;;
46491;SDS011;32206;51.446;6.792;2023-08-08T09:52:12;4.80;;;1.70;;
46491;SDS011;32206;51.446;6.792;2023-08-08T09:54:39;6.78;;;1.65;;
46491;SDS011;32206;51.446;6.792;2023-08-08T09:57:06;4.28;;;1.40;;
46491;SDS011;32206;51.446;6.792;2023-08-08T09:59:32;5.65;;;1.52;;
46491;SDS011;32206;51.446;6.792;2023-08-08T10:01:59;11.80;;;1.92;;
46491;SDS011;32206;51.446;6.792;2023-08-08T10:04:26;7.85;;;1.73;;
46491;SDS011;32206;51.446;6.792;2023-08-08T10:06:52;2.00;;;1.50;;
46491;SDS011;32206;51.446;6.792;2023-08-08T10:09:17;4.63;;;1.40;;
46491;SDS011;32206;51.446;6.792;2023-08-08T10:11:44;9.00;;;1.80;;
46491;SDS011;32206;51.446;6.792;2023-08-08T10:14:10;4.30;;;1.50;;
46491;SDS011;32206;51.446;6.792;2023-08-08T10:16:37;8.13;;;1.80;;
46491;SDS011;32206;51.446;6.792;2023-08-08T10:19:04;7.57;;;1.52;;
46491;SDS011;32206;51.446;6.792;2023-08-08T10:21:37;5.32;;;1.50;;
46491;SDS011;32206;51.446;6.792;2023-08-08T10:24:09;4.22;;;1.30;;
46491;SDS011;32206;51.446;6.792;2023-08-08T10:26:56;7.32;;;1.80;;
46491;SDS011;32206;51.446;6.792;2023-08-08T10:29:25;1.98;;;1.02;;
46491;SDS011;32206;51.446;6.792;2023-08-08T10:37:08;11.10;;;1.75;;
46491;SDS011;32206;51.446;6.792;2023-08-08T10:42:20;5.97;;;1.30;;
46491;SDS011;32206;51.446;6.792;2023-08-08T10:44:51;2.35;;;1.20;;
46491;SDS011;32206;51.446;6.792;2023-08-08T10:55:21;4.45;;;1.42;;
46491;SDS011;32206;51.446;6.792;2023-08-08T10:57:57;6.45;;;1.42;;
46491;SDS011;32206;51.446;6.792;2023-08-08T11:09:36;3.88;;;1.30;;
46491;SDS011;32206;51.446;6.792;2023-08-08T11:12:02;4.22;;;1.83;;
46491;SDS011;32206;51.446;6.792;2023-08-08T11:14:28;3.55;;;1.10;;
46491;SDS011;32206;51.446;6.792;2023-08-08T11:16:54;5.57;;;1.48;;
46491;SDS011;32206;51.446;6.792;2023-08-08T11:19:20;3.58;;;1.25;;
46491;SDS011;32206;51.446;6.792;2023-08-08T11:21:46;2.15;;;1.02;;
46491;SDS011;32206;51.446;6.792;2023-08-08T11:24:13;6.53;;;1.30;;
46491;SDS011;32206;51.446;6.792;2023-08-08T11:26:39;5.10;;;1.50;;
46491;SDS011;32206;51.446;6.792;2023-08-08T11:29:06;1.58;;;0.95;;
46491;SDS011;32206;51.446;6.792;2023-08-08T11:31:35;5.63;;;0.98;;
46491;SDS011;32206;51.446;6.792;2023-08-08T11:34:01;1.60;;;1.17;;
46491;SDS011;32206;51.446;6.792;2023-08-08T11:36:32;7.43;;;1.23;;
46491;SDS011;32206;51.446;6.792;2023-08-08T11:39:02;3.65;;;1.08;;
46491;SDS011;32206;51.446;6.792;2023-08-08T11:41:33;3.88;;;1.05;;
46491;SDS011;32206;51.446;6.792;2023-08-08T11:47:24;3.90;;;1.50;;
46491;SDS011;32206;51.446;6.792;2023-08-08T11:49:51;11.05;;;2.22;;
46491;SDS011;32206;51.446;6.792;2023-08-08T11:55:27;9.45;;;2.15;;
46491;SDS011;32206;51.446;6.792;2023-08-08T11:57:53;18.10;;;3.67;;
46491;SDS011;32206;51.446;6.792;2023-08-08T12:00:25;3.92;;;1.27;;
46491;SDS011;32206;51.446;6.792;2023-08-08T12:03:09;5.00;;;1.60;;
46491;SDS011;32206;51.446;6.792;2023-08-08T12:05:36;6.53;;;1.58;;
46491;SDS011;32206;51.446;6.792;2023-08-08T12:08:04;5.30;;;1.67;;
46491;SDS011;32206;51.446;6.792;2023-08-08T12:10:31;72.40;;;15.00;;
46491;SDS011;32206;51.446;6.792;2023-08-08T12:12:59;18.15;;;4.15;;
46491;SDS011;32206;51.446;6.792;2023-08-08T12:15:32;6.13;;;1.70;;
46491;SDS011;32206;51.446;6.792;2023-08-08T12:18:00;4.85;;;1.40;;
46491;SDS011;32206;51.446;6.792;2023-08-08T12:20:28;3.80;;;1.00;;
46491;SDS011;32206;51.446;6.792;2023-08-08T12:22:57;6.40;;;1.42;;
46491;SDS011;32206;51.446;6.792;2023-08-08T12:25:23;3.13;;;1.17;;
46491;SDS011;32206;51.446;6.792;2023-08-08T12:27:49;4.00;;;1.42;;
46491;SDS011;32206;51.446;6.792;2023-08-08T12:30:14;3.22;;;1.10;;
46491;SDS011;32206;51.446;6.792;2023-08-08T12:32:40;7.32;;;1.70;;
46491;SDS011;32206;51.446;6.792;2023-08-08T12:35:06;2.20;;;1.00;;
46491;SDS011;32206;51.446;6.792;2023-08-08T12:37:32;3.47;;;1.20;;
46491;SDS011;32206;51.446;6.792;2023-08-08T12:39:58;4.07;;;1.30;;
46491;SDS011;32206;51.446;6.792;2023-08-08T12:42:24;4.22;;;1.30;;
46491;SDS011;32206;51.446;6.792;2023-08-08T12:44:50;3.22;;;1.38;;
46491;SDS011;32206;51.446;6.792;2023-08-08T12:47:17;3.33;;;1.60;;
46491;SDS011;32206;51.446;6.792;2023-08-08T12:49:44;7.43;;;1.30;;
46491;SDS011;32206;51.446;6.792;2023-08-08T12:52:09;1.65;;;1.23;;
46491;SDS011;32206;51.446;6.792;2023-08-08T12:54:35;3.70;;;1.30;;
46491;SDS011;32206;51.446;6.792;2023-08-08T12:57:01;3.80;;;1.55;;
46491;SDS011;32206;51.446;6.792;2023-08-08T12:59:27;3.78;;;1.40;;
46491;SDS011;32206;51.446;6.792;2023-08-08T13:01:53;4.50;;;1.35;;
46491;SDS011;32206;51.446;6.792;2023-08-08T13:11:03;3.22;;;1.10;;
46491;SDS011;32206;51.446;6.792;2023-08-08T13:13:30;2.50;;;1.08;;
46491;SDS011;32206;51.446;6.792;2023-08-08T13:15:55;4.28;;;1.38;;
46491;SDS011;32206;51.446;6.792;2023-08-08T13:18:21;2.80;;;1.42;;
46491;SDS011;32206;51.446;6.792;2023-08-08T13:20:47;3.65;;;1.30;;
46491;SDS011;32206;51.446;6.792;2023-08-08T13:23:13;8.65;;;3.45;;
46491;SDS011;32206;51.446;6.792;2023-08-08T13:25:39;12.25;;;7.60;;
46491;SDS011;32206;51.446;6.792;2023-08-08T13:28:05;1.98;;;1.00;;
46491;SDS011;32206;51.446;6.792;2023-08-08T13:30:32;5.38;;;1.63;;
46491;SDS011;32206;51.446;6.792;2023-08-08T13:33:00;2.25;;;0.82;;
46491;SDS011;32206;51.446;6.792;2023-08-08T13:35:25;4.22;;;1.00;;
46491;SDS011;32206;51.446;6.792;2023-08-08T13:37:51;2.78;;;0.80;;
46491;SDS011;32206;51.446;6.792;2023-08-08T13:40:19;2.30;;;1.02;;
46491;SDS011;32206;51.446;6.792;2023-08-08T13:49:30;2.63;;;0.90;;
46491;SDS011;32206;51.446;6.792;2023-08-08T13:51:55;5.13;;;1.27;;
46491;SDS011;32206;51.446;6.792;2023-08-08T13:54:21;7.85;;;0.95;;
46491;SDS011;32206;51.446;6.792;2023-08-08T13:56:47;3.58;;;1.20;;
46491;SDS011;32206;51.446;6.792;2023-08-08T13:59:12;2.47;;;0.80;;
46491;SDS011;32206;51.446;6.792;2023-08-08T14:01:39;3.10;;;1.17;;
46491;SDS011;32206;51.446;6.792;2023-08-08T14:04:04;2.50;;;0.98;;
46491;SDS011;32206;51.446;6.792;2023-08-08T14:06:30;3.60;;;0.95;;
46491;SDS011;32206;51.446;6.792;2023-08-08T14:08:56;2.33;;;1.52;;
46491;SDS011;32206;51.446;6.792;2023-08-08T14:11:22;3.15;;;1.38;;
46491;SDS011;32206;51.446;6.792;2023-08-08T14:13:48;4.05;;;1.02;;
46491;SDS011;32206;51.446;6.792;2023-08-08T14:16:13;1.67;;;1.27;;
46491;SDS011;32206;51.446;6.792;2023-08-08T14:18:39;5.57;;;0.80;;
46491;SDS011;32206;51.446;6.792;2023-08-08T14:21:05;3.67;;;1.15;;
46491;SDS011;32206;51.446;6.792;2023-08-08T14:23:31;2.63;;;1.00;;
46491;SDS011;32206;51.446;6.792;2023-08-08T14:25:57;4.65;;;1.20;;
46491;SDS011;32206;51.446;6.792;2023-08-08T14:28:22;1.98;;;1.30;;
46491;SDS011;32206;51.446;6.792;2023-08-08T14:34:10;1.40;;;0.55;;
46491;SDS011;32206;51.446;6.792;2023-08-08T14:36:36;2.42;;;1.00;;
46491;SDS011;32206;51.446;6.792;2023-08-08T14:39:02;1.23;;;0.63;;
46491;SDS011;32206;51.446;6.792;2023-08-08T14:41:28;5.13;;;1.13;;
46491;SDS011;32206;51.446;6.792;2023-08-08T14:43:53;3.65;;;1.13;;
46491;SDS011;32206;51.446;6.792;2023-08-08T14:46:19;2.70;;;0.77;;
46491;SDS011;32206;51.446;6.792;2023-08-08T14:48:45;1.15;;;0.75;;
46491;SDS011;32206;51.446;6.792;2023-08-08T14:51:10;4.72;;;0.98;;
46491;SDS011;32206;51.446;6.792;2023-08-08T14:53:38;0.95;;;0.73;;
46491;SDS011;32206;51.446;6.792;2023-08-08T14:56:03;0.95;;;0.50;;
46491;SDS011;32206;51.446;6.792;2023-08-08T14:58:29;2.30;;;0.55;;
46491;SDS011;32206;51.446;6.792;2023-08-08T15:00:55;2.05;;;0.50;;
46491;SDS011;32206;51.446;6.792;2023-08-08T15:03:21;2.47;;;0.40;;
46491;SDS011;32206;51.446;6.792;2023-08-08T15:05:46;1.55;;;0.43;;
46491;SDS011;32206;51.446;6.792;2023-08-08T15:08:13;1.27;;;0.50;;
46491;SDS011;32206;51.446;6.792;2023-08-08T15:10:39;0.90;;;0.40;;
46491;SDS011;32206;51.446;6.792;2023-08-08T15:15:53;1.42;;;0.40;;
46491;SDS011;32206;51.446;6.792;2023-08-08T15:18:19;0.30;;;0.30;;
46491;SDS011;32206;51.446;6.792;2023-08-08T15:20:44;0.60;;;0.40;;
46491;SDS011;32206;51.446;6.792;2023-08-08T15:23:10;2.08;;;0.70;;
46491;SDS011;32206;51.446;6.792;2023-08-08T15:25:36;0.73;;;0.50;;
46491;SDS011;32206;51.446;6.792;2023-08-08T15:28:02;0.90;;;0.47;;
46491;SDS011;32206;51.446;6.792;2023-08-08T15:30:29;3.53;;;0.68;;
46491;SDS011;32206;51.446;6.792;2023-08-08T15:32:55;0.70;;;0.60;;
46491;SDS011;32206;51.446;6.792;2023-08-08T15:35:21;1.38;;;1.27;;
46491;SDS011;32206;51.446;6.792;2023-08-08T15:37:46;1.83;;;0.32;;
46491;SDS011;32206;51.446;6.792;2023-08-08T15:40:12;1.25;;;0.45;;
46491;SDS011;32206;51.446;6.792;2023-08-08T15:42:38;1.02;;;0.90;;
46491;SDS011;32206;51.446;6.792;2023-08-08T15:45:08;1.27;;;0.50;;
46491;SDS011;32206;51.446;6.792;2023-08-08T15:47:35;1.20;;;0.32;;
46491;SDS011;32206;51.446;6.792;2023-08-08T15:50:01;0.75;;;0.50;;
46491;SDS011;32206;51.446;6.792;2023-08-08T15:52:27;0.98;;;0.30;;
46491;SDS011;32206;51.446;6.792;2023-08-08T15:54:52;1.25;;;0.60;;
46491;SDS011;32206;51.446;6.792;2023-08-08T15:57:21;0.43;;;0.40;;
46491;SDS011;32206;51.446;6.792;2023-08-08T15:59:46;2.15;;;0.50;;
46491;SDS011;32206;51.446;6.792;2023-08-08T16:02:12;0.40;;;0.38;;
46491;SDS011;32206;51.446;6.792;2023-08-08T16:04:38;4.63;;;0.60;;
46491;SDS011;32206;51.446;6.792;2023-08-08T16:07:03;0.32;;;0.30;;
46491;SDS011;32206;51.446;6.792;2023-08-08T16:09:29;1.08;;;0.65;;
46491;SDS011;32206;51.446;6.792;2023-08-08T16:11:55;3.10;;;0.50;;
46491;SDS011;32206;51.446;6.792;2023-08-08T16:14:21;1.10;;;0.50;;
46491;SDS011;32206;51.446;6.792;2023-08-08T16:16:47;2.88;;;0.70;;
46491;SDS011;32206;51.446;6.792;2023-08-08T16:19:13;0.60;;;0.40;;
46491;SDS011;32206;51.446;6.792;2023-08-08T16:21:38;3.08;;;0.40;;
46491;SDS011;32206;51.446;6.792;2023-08-08T16:24:04;1.95;;;0.50;;
46491;SDS011;32206;51.446;6.792;2023-08-08T16:26:30;3.20;;;0.52;;
46491;SDS011;32206;51.446;6.792;2023-08-08T16:28:56;1.65;;;0.40;;
46491;SDS011;32206;51.446;6.792;2023-08-08T16:31:22;1.83;;;0.50;;
46491;SDS011;32206;51.446;6.792;2023-08-08T16:34:03;2.40;;;0.63;;
46491;SDS011;32206;51.446;6.792;2023-08-08T16:36:29;5.50;;;0.60;;
46491;SDS011;32206;51.446;6.792;2023-08-08T16:38:54;2.42;;;0.57;;
46491;SDS011;32206;51.446;6.792;2023-08-08T16:41:20;2.47;;;0.57;;
46491;SDS011;32206;51.446;6.792;2023-08-08T16:44:02;0.50;;;0.50;;
46491;SDS011;32206;51.446;6.792;2023-08-08T16:46:29;0.40;;;0.32;;